Time;durP1;ratioP1;P1;durP2;ratioP2;P2;SDS_P1;SDS_P2;PMS_P1;PMS_P2;Temp;Humidity;BMP_temperature;BMP_pressure;BME280_temperature;BME280_humidity;BME280_pressure;Samples;Min_cycle;Max_cycle;Signal;HPM_P1;HPM_P2
2022/01/05 00:02:07;;;;;;;17.17;3.45;;;2.80;99.90;;;;;;5034100;28;20025;-50
2022/01/05 00:04:33;;;;;;;11.02;2.70;;;2.80;99.90;;;;;;5029107;28;20560;-50
2022/01/05 00:06:59;;;;;;;24.50;3.45;;;2.80;99.90;;;;;;5030449;28;20029;-51
2022/01/05 00:09:25;;;;;;;15.88;2.90;;;2.80;99.90;;;;;;5034299;28;20033;-51
2022/01/05 00:11:50;;;;;;;23.15;3.03;;;2.80;99.90;;;;;;5060915;22;20529;-52
2022/01/05 00:14:16;;;;;;;8.48;2.25;;;2.80;99.90;;;;;;5054143;28;20100;-52
2022/01/05 00:16:42;;;;;;;20.13;3.70;;;2.80;99.90;;;;;;5041979;28;20104;-51
2022/01/05 00:19:07;;;;;;;14.38;2.85;;;2.80;99.90;;;;;;5053950;28;20033;-49
2022/01/05 00:21:33;;;;;;;16.42;3.00;;;2.70;99.90;;;;;;5053295;28;20021;-53
2022/01/05 00:23:59;;;;;;;13.48;2.53;;;2.70;99.90;;;;;;5053820;28;20033;-51
2022/01/05 00:26:26;;;;;;;14.25;2.60;;;2.70;99.90;;;;;;5053374;28;20428;-50
2022/01/05 00:28:51;;;;;;;19.67;3.05;;;2.70;99.90;;;;;;5054333;28;20056;-49
2022/01/05 00:31:17;;;;;;;12.13;3.20;;;2.70;99.90;;;;;;5052583;28;20504;-49
2022/01/05 00:33:43;;;;;;;19.95;4.35;;;2.70;99.90;;;;;;5052801;28;20041;-51
2022/01/05 00:36:08;;;;;;;10.85;2.40;;;2.70;99.90;;;;;;5052656;28;20029;-50
2022/01/05 00:38:34;;;;;;;18.55;3.00;;;2.70;99.90;;;;;;5054052;28;20021;-51
2022/01/05 00:41:00;;;;;;;12.57;2.80;;;2.70;99.90;;;;;;5052311;28;20036;-50
2022/01/05 00:43:26;;;;;;;15.15;2.92;;;2.60;99.90;;;;;;5045592;28;20108;-51
2022/01/05 00:45:52;;;;;;;17.50;3.03;;;2.60;99.90;;;;;;5052765;28;20124;-54
2022/01/05 00:48:17;;;;;;;13.68;3.10;;;2.60;99.90;;;;;;5053467;28;20032;-50
2022/01/05 00:50:43;;;;;;;18.02;2.90;;;2.60;99.90;;;;;;5052492;28;20162;-50
2022/01/05 00:53:09;;;;;;;16.85;2.70;;;2.60;99.90;;;;;;5053389;28;20025;-50
2022/01/05 00:55:34;;;;;;;18.38;3.83;;;2.60;99.90;;;;;;5052170;28;20029;-49
2022/01/05 00:58:00;;;;;;;16.75;2.38;;;2.60;99.90;;;;;;5052188;28;20658;-51
2022/01/05 01:00:25;;;;;;;17.52;3.20;;;2.50;99.90;;;;;;5051687;28;20124;-51
2022/01/05 01:02:51;;;;;;;13.93;2.70;;;2.50;99.90;;;;;;5052828;28;20482;-49
2022/01/05 01:05:17;;;;;;;11.35;2.53;;;2.50;99.90;;;;;;5052626;28;20029;-52
2022/01/05 01:07:44;;;;;;;10.80;2.13;;;2.50;99.90;;;;;;5053262;28;20035;-51
2022/01/05 01:10:10;;;;;;;12.85;2.88;;;2.50;99.90;;;;;;5052119;28;20028;-49
2022/01/05 01:12:36;;;;;;;17.40;2.97;;;2.50;99.90;;;;;;5052758;28;20503;-48
2022/01/05 01:15:07;;;;;;;11.00;2.67;;;2.50;99.90;;;;;;5052641;28;20025;-48
2022/01/05 01:17:33;;;;;;;16.98;3.33;;;2.50;99.90;;;;;;5052551;28;20020;-48
2022/01/05 01:19:59;;;;;;;10.27;2.65;;;2.50;99.90;;;;;;5052376;28;20033;-48
2022/01/05 01:22:27;;;;;;;15.75;2.55;;;2.50;99.90;;;;;;5054054;28;20021;-53
2022/01/05 01:24:53;;;;;;;18.63;3.08;;;2.50;99.90;;;;;;5054144;28;20033;-54
2022/01/05 01:27:18;;;;;;;12.45;2.22;;;2.50;99.90;;;;;;5053749;28;20045;-55
2022/01/05 01:29:44;;;;;;;15.20;3.05;;;2.50;99.90;;;;;;5052462;28;20032;-53
2022/01/05 01:32:09;;;;;;;13.43;2.85;;;2.50;99.90;;;;;;5052254;28;20382;-52
2022/01/05 01:34:35;;;;;;;20.52;3.25;;;2.50;99.90;;;;;;5053156;28;20124;-52
2022/01/05 01:37:01;;;;;;;15.40;2.90;;;2.50;99.90;;;;;;5052166;28;20029;-53
2022/01/05 01:39:26;;;;;;;17.02;2.60;;;2.50;99.90;;;;;;5052642;28;20033;-51
2022/01/05 01:41:52;;;;;;;19.90;3.47;;;2.50;99.90;;;;;;5051426;28;20104;-50
2022/01/05 01:44:17;;;;;;;22.17;3.95;;;2.50;99.90;;;;;;5052458;28;20494;-50
2022/01/05 01:46:43;;;;;;;16.08;3.17;;;2.40;99.90;;;;;;5049015;28;20040;-49
2022/01/05 01:49:09;;;;;;;23.80;3.25;;;2.50;99.90;;;;;;5052191;28;20131;-50
2022/01/05 01:51:34;;;;;;;21.50;3.13;;;2.50;99.90;;;;;;5051109;28;20029;-50
2022/01/05 01:54:02;;;;;;;14.85;2.70;;;2.50;99.90;;;;;;5052145;28;20532;-52
2022/01/05 01:56:32;;;;;;;22.73;3.25;;;2.50;99.90;;;;;;5051609;28;20025;-50
2022/01/05 01:58:59;;;;;;;10.45;3.13;;;2.40;99.90;;;;;;5052314;28;20376;-51
2022/01/05 02:01:24;;;;;;;12.55;2.90;;;2.50;99.90;;;;;;5050990;28;20013;-49
2022/01/05 02:03:50;;;;;;;18.73;2.83;;;2.40;99.90;;;;;;5052214;28;20421;-50
2022/01/05 02:06:16;;;;;;;24.02;4.45;;;2.40;99.90;;;;;;5050215;28;20037;-48
2022/01/05 02:08:42;;;;;;;13.70;2.85;;;2.40;99.90;;;;;;5051806;28;20478;-48
2022/01/05 02:11:09;;;;;;;13.20;2.80;;;2.40;99.90;;;;;;5048912;28;20048;-48
2022/01/05 02:13:35;;;;;;;19.30;3.65;;;2.40;99.90;;;;;;5051843;28;20486;-49
2022/01/05 02:16:01;;;;;;;22.95;3.47;;;2.40;99.90;;;;;;5051268;28;20044;-53
2022/01/05 02:21:08;;;;;;;15.63;3.28;;;2.40;99.90;;;;;;5050701;28;20024;-49
2022/01/05 02:23:35;;;;;;;16.58;3.78;;;2.30;99.90;;;;;;5044791;28;20039;-49
2022/01/05 02:26:02;;;;;;;18.90;2.50;;;2.30;99.90;;;;;;5050386;28;20033;-53
2022/01/05 02:28:28;;;;;;;21.15;3.05;;;2.30;99.90;;;;;;5051925;28;20037;-48
2022/01/05 02:30:54;;;;;;;21.80;2.60;;;2.40;99.90;;;;;;5049462;28;20048;-49
2022/01/05 02:33:24;;;;;;;21.05;3.80;;;2.30;99.90;;;;;;5051684;28;20033;-49
2022/01/05 02:35:51;;;;;;;29.50;3.78;;;2.40;99.90;;;;;;5051435;28;20030;-49
2022/01/05 02:38:18;;;;;;;15.75;3.55;;;2.40;99.90;;;;;;5051510;28;20032;-50
2022/01/05 02:40:44;;;;;;;13.82;2.53;;;2.30;99.90;;;;;;5049428;28;20021;-50
2022/01/05 02:43:10;;;;;;;16.75;2.95;;;2.40;99.90;;;;;;5051594;28;20389;-52
2022/01/05 02:45:35;;;;;;;17.15;2.97;;;2.30;99.90;;;;;;5050797;28;20392;-52
2022/01/05 02:48:01;;;;;;;23.63;3.47;;;2.30;99.90;;;;;;5051755;28;20478;-51
2022/01/05 02:50:26;;;;;;;17.15;3.35;;;2.40;99.90;;;;;;5050531;28;20044;-49
2022/01/05 02:52:52;;;;;;;22.02;2.97;;;2.30;99.90;;;;;;5051831;28;20029;-52
2022/01/05 02:55:18;;;;;;;17.35;2.67;;;2.30;99.90;;;;;;5049180;28;20032;-49
2022/01/05 02:57:44;;;;;;;17.48;2.75;;;2.30;99.90;;;;;;5050586;28;20037;-52
2022/01/05 03:00:12;;;;;;;19.10;3.95;;;2.40;99.90;;;;;;5051374;28;20029;-49
2022/01/05 03:02:38;;;;;;;27.45;3.35;;;2.40;99.90;;;;;;5051483;28;20052;-50
2022/01/05 03:05:04;;;;;;;20.27;3.22;;;2.40;99.90;;;;;;5052344;28;20061;-48
2022/01/05 03:07:30;;;;;;;23.38;3.17;;;2.40;99.90;;;;;;5053141;28;20021;-49
2022/01/05 03:09:55;;;;;;;15.40;2.60;;;2.40;99.90;;;;;;5050996;28;20392;-49
2022/01/05 03:12:21;;;;;;;13.65;2.70;;;2.40;99.90;;;;;;5052603;28;20116;-49
2022/01/05 03:14:46;;;;;;;17.40;3.08;;;2.40;99.90;;;;;;5050834;28;20369;-52
2022/01/05 03:17:12;;;;;;;15.18;3.15;;;2.40;99.90;;;;;;5051650;28;20477;-55
2022/01/05 03:19:38;;;;;;;14.25;2.70;;;2.40;99.90;;;;;;5050195;28;20021;-53
2022/01/05 03:22:04;;;;;;;15.18;2.80;;;2.40;99.90;;;;;;5050271;28;20116;-51
2022/01/05 03:24:29;;;;;;;21.70;2.67;;;2.30;99.90;;;;;;5049982;28;20029;-50
2022/01/05 03:26:55;;;;;;;16.92;3.15;;;2.30;99.90;;;;;;5051047;28;20032;-51
2022/01/05 03:29:21;;;;;;;16.88;3.08;;;2.30;99.90;;;;;;5050223;28;20061;-51
2022/01/05 03:31:46;;;;;;;20.20;2.75;;;2.40;99.90;;;;;;5049602;28;20029;-50
2022/01/05 03:34:18;;;;;;;20.95;2.70;;;2.40;99.90;;;;;;5050375;28;20037;-49
2022/01/05 03:36:44;;;;;;;;;;;2.40;99.90;;;;;;5051669;28;20100;-50
2022/01/05 03:39:10;;;;;;;23.98;3.13;;;2.40;99.90;;;;;;5050092;28;20400;-49
2022/01/05 03:41:36;;;;;;;24.88;3.15;;;2.50;99.90;;;;;;5050538;28;20112;-50
2022/01/05 03:44:01;;;;;;;17.38;3.20;;;2.40;99.90;;;;;;5049928;28;20390;-51
2022/01/05 03:46:27;;;;;;;24.75;3.13;;;2.50;99.90;;;;;;5051132;28;20428;-49
2022/01/05 03:48:53;;;;;;;16.83;2.60;;;2.50;99.90;;;;;;5048940;28;20044;-52
2022/01/05 03:51:19;;;;;;;25.35;4.00;;;2.50;99.90;;;;;;5050568;28;20029;-48
2022/01/05 03:53:44;;;;;;;15.50;2.08;;;2.50;99.90;;;;;;5050017;28;20060;-48
2022/01/05 03:56:10;;;;;;;19.85;2.83;;;2.50;99.90;;;;;;5050855;28;20390;-49
2022/01/05 03:58:36;;;;;;;15.68;2.50;;;2.50;99.90;;;;;;5048623;28;20029;-49
2022/01/05 04:01:02;;;;;;;17.05;2.97;;;2.50;99.90;;;;;;5050377;28;20037;-49
2022/01/05 04:03:28;;;;;;;17.40;2.72;;;2.50;99.90;;;;;;5048686;28;20577;-52
2022/01/05 04:05:53;;;;;;;15.85;2.70;;;2.50;99.90;;;;;;5050852;28;20207;-49
2022/01/05 04:08:19;;;;;;;10.82;2.85;;;2.50;99.90;;;;;;5053045;28;20109;-49
2022/01/05 04:10:44;;;;;;;20.27;2.75;;;2.50;99.90;;;;;;5054037;28;20048;-50
2022/01/05 04:13:10;;;;;;;20.42;3.67;;;2.50;99.90;;;;;;5051786;28;20120;-50
2022/01/05 04:15:36;;;;;;;20.50;2.95;;;2.40;99.90;;;;;;5054197;28;20028;-50
2022/01/05 04:18:02;;;;;;;18.83;2.72;;;2.40;99.90;;;;;;5053523;28;20032;-49
2022/01/05 04:20:27;;;;;;;15.32;3.05;;;2.50;99.90;;;;;;5053971;28;20021;-48
2022/01/05 04:22:53;;;;;;;12.77;2.75;;;2.50;99.90;;;;;;5052708;28;20099;-49
2022/01/05 04:25:19;;;;;;;16.33;2.60;;;2.50;99.90;;;;;;5054109;28;20021;-50
2022/01/05 04:27:44;;;;;;;18.20;3.22;;;2.50;99.90;;;;;;5053351;28;20497;-50
2022/01/05 04:30:12;;;;;;;19.25;2.88;;;2.60;99.90;;;;;;5053476;28;20108;-52
2022/01/05 04:32:38;;;;;;;19.13;2.83;;;2.60;99.90;;;;;;5053201;28;20506;-50
2022/01/05 04:35:04;;;;;;;15.38;3.50;;;2.50;99.90;;;;;;5053816;28;20039;-51
2022/01/05 04:37:32;;;;;;;23.20;3.35;;;2.50;99.90;;;;;;5053224;28;20505;-51
2022/01/05 04:39:58;;;;;;;16.92;2.65;;;2.60;99.90;;;;;;5053527;28;20478;-50
2022/01/05 04:42:24;;;;;;;20.35;3.20;;;2.60;99.90;;;;;;5053447;28;20056;-52
2022/01/05 04:44:50;;;;;;;17.75;2.70;;;2.70;99.90;;;;;;5053669;28;20033;-50
2022/01/05 04:47:16;;;;;;;23.08;3.40;;;2.70;99.90;;;;;;5052583;28;20036;-50
2022/01/05 04:49:42;;;;;;;23.23;3.10;;;2.70;99.90;;;;;;5051156;28;20390;-50
2022/01/05 04:52:07;;;;;;;17.02;3.53;;;2.70;99.90;;;;;;5052703;28;20067;-51
2022/01/05 04:54:33;;;;;;;17.77;2.17;;;2.80;99.90;;;;;;5053583;28;20033;-50
2022/01/05 04:56:59;;;;;;;25.83;3.35;;;2.80;99.90;;;;;;5052676;28;20048;-53
2022/01/05 04:59:24;;;;;;;16.08;3.00;;;2.70;99.90;;;;;;5053341;28;20120;-53
2022/01/05 05:01:50;;;;;;;15.68;2.75;;;2.70;99.90;;;;;;5052443;28;20032;-50
2022/01/05 05:04:16;;;;;;;21.38;2.95;;;2.80;99.90;;;;;;5053401;28;20067;-51
2022/01/05 05:06:41;;;;;;;17.15;2.45;;;2.80;99.90;;;;;;5051399;28;20033;-51
2022/01/05 05:09:07;;;;;;;26.10;3.17;;;2.90;99.90;;;;;;5053258;28;20025;-50
2022/01/05 05:11:33;;;;;;;18.38;3.35;;;3.00;99.90;;;;;;5050750;28;20033;-52
2022/01/05 05:13:59;;;;;;;22.17;3.22;;;3.00;99.90;;;;;;5053510;28;20033;-51
2022/01/05 05:16:25;;;;;;;20.10;3.20;;;3.00;99.90;;;;;;5052636;28;20048;-52
2022/01/05 05:18:50;;;;;;;24.23;3.88;;;3.00;99.90;;;;;;5053172;28;20040;-51
2022/01/05 05:21:16;;;;;;;15.45;3.30;;;3.10;99.90;;;;;;5052275;28;20021;-50
2022/01/05 05:23:41;;;;;;;14.65;2.63;;;3.10;99.90;;;;;;5053540;28;20029;-51
2022/01/05 05:26:07;;;;;;;15.65;3.33;;;3.20;99.90;;;;;;5052643;28;20017;-53
2022/01/05 05:28:33;;;;;;;12.52;2.60;;;3.10;99.90;;;;;;5051493;28;20324;-53
2022/01/05 05:30:58;;;;;;;27.70;4.47;;;3.20;99.90;;;;;;5051405;28;20505;-50
2022/01/05 05:33:24;;;;;;;20.83;3.30;;;3.20;99.90;;;;;;5052387;28;20100;-54
2022/01/05 05:35:50;;;;;;;18.85;2.97;;;3.10;99.90;;;;;;5053098;28;20382;-51
2022/01/05 05:38:15;;;;;;;18.52;3.50;;;3.10;99.90;;;;;;5051907;28;20055;-52
2022/01/05 05:40:43;;;;;;;16.35;2.22;;;3.10;99.90;;;;;;5051534;28;20020;-52
2022/01/05 05:43:09;;;;;;;11.43;2.28;;;3.10;99.90;;;;;;5052231;28;20106;-52
2022/01/05 05:45:35;;;;;;;19.80;2.97;;;3.10;99.90;;;;;;5050140;28;20047;-57
2022/01/05 05:48:00;;;;;;;19.33;3.40;;;3.10;99.90;;;;;;5041628;28;20048;-55
2022/01/05 05:50:26;;;;;;;17.40;3.10;;;3.10;99.90;;;;;;5048340;28;20470;-53
2022/01/05 05:52:51;;;;;;;20.05;3.05;;;3.10;99.90;;;;;;5039161;28;20126;-54
2022/01/05 05:55:17;;;;;;;15.10;3.58;;;3.00;99.90;;;;;;5048302;28;20124;-52
2022/01/05 05:57:43;;;;;;;25.60;2.60;;;3.00;99.90;;;;;;5050408;28;20025;-50
2022/01/05 06:00:10;;;;;;;16.63;3.10;;;3.00;99.90;;;;;;5047546;28;20021;-54
2022/01/05 06:02:36;;;;;;;26.15;3.70;;;2.90;99.90;;;;;;5050326;28;20041;-52
2022/01/05 06:05:01;;;;;;;13.35;3.25;;;2.90;99.90;;;;;;5050322;28;20082;-56
2022/01/05 06:07:27;;;;;;;16.92;3.00;;;2.90;99.90;;;;;;5049361;28;20437;-57
2022/01/05 06:09:52;;;;;;;19.20;3.63;;;2.90;99.90;;;;;;5048106;28;20489;-54
2022/01/05 06:12:18;;;;;;;21.17;3.88;;;2.90;99.90;;;;;;5050372;28;20040;-52
2022/01/05 06:14:44;;;;;;;18.50;3.47;;;2.90;99.90;;;;;;5048923;28;20032;-53
2022/01/05 06:17:10;;;;;;;27.08;3.47;;;2.90;99.90;;;;;;5041802;28;20079;-57
2022/01/05 06:19:35;;;;;;;25.52;3.78;;;2.90;99.90;;;;;;5049385;28;20474;-56
2022/01/05 06:22:01;;;;;;;23.90;3.45;;;2.90;99.90;;;;;;5046470;28;20032;-52
2022/01/05 06:24:26;;;;;;;31.05;3.45;;;3.00;99.90;;;;;;5050872;28;20474;-53
2022/01/05 06:26:52;;;;;;;28.58;4.28;;;2.90;99.90;;;;;;5049364;28;20051;-49
2022/01/05 06:29:19;;;;;;;15.30;3.22;;;3.00;99.90;;;;;;5050297;28;20116;-52
2022/01/05 06:31:45;;;;;;;27.95;4.22;;;3.00;99.90;;;;;;5046357;28;20044;-57
2022/01/05 06:34:11;;;;;;;15.18;2.75;;;2.90;99.90;;;;;;5039891;28;20391;-53
2022/01/05 06:36:37;;;;;;;25.95;3.38;;;3.00;99.90;;;;;;5047534;28;20083;-52
2022/01/05 06:39:03;;;;;;;24.42;3.60;;;3.00;99.90;;;;;;5049521;28;20057;-58
2022/01/05 06:41:29;;;;;;;18.60;2.95;;;3.00;99.90;;;;;;5046918;28;20033;-56
2022/01/05 06:43:54;;;;;;;19.23;3.30;;;3.00;99.90;;;;;;5048523;28;20033;-56
2022/01/05 06:46:20;;;;;;;19.55;3.05;;;3.00;99.90;;;;;;5047495;28;20036;-53
2022/01/05 06:48:46;;;;;;;17.58;3.08;;;3.10;99.90;;;;;;5047843;28;20029;-56
2022/01/05 06:51:11;;;;;;;24.70;3.40;;;3.10;99.90;;;;;;5046150;28;20037;-54
2022/01/05 06:53:37;;;;;;;21.05;3.10;;;3.10;99.90;;;;;;5046501;28;20473;-53
2022/01/05 06:56:03;;;;;;;16.60;2.92;;;3.10;99.90;;;;;;5043871;28;20032;-58
2022/01/05 06:58:29;;;;;;;25.33;3.35;;;3.10;99.90;;;;;;5049295;28;20025;-58
2022/01/05 07:00:55;;;;;;;23.20;3.10;;;3.10;99.90;;;;;;5048023;28;20028;-55
2022/01/05 07:03:21;;;;;;;32.30;3.13;;;3.20;99.90;;;;;;5049353;28;20037;-54
2022/01/05 07:05:47;;;;;;;18.10;3.15;;;3.20;99.90;;;;;;5047932;28;20025;-55
2022/01/05 07:08:13;;;;;;;16.67;2.80;;;3.20;99.90;;;;;;5042155;28;20055;-53
2022/01/05 07:10:38;;;;;;;19.33;3.22;;;3.30;99.90;;;;;;5048498;28;20040;-56
2022/01/05 07:13:04;;;;;;;21.70;3.53;;;3.30;99.90;;;;;;5051243;28;20021;-58
2022/01/05 07:15:30;;;;;;;20.90;3.13;;;3.40;99.90;;;;;;5049560;28;20025;-57
2022/01/05 07:17:55;;;;;;;18.60;3.22;;;3.40;99.90;;;;;;5050997;28;20124;-58
2022/01/05 07:20:21;;;;;;;22.17;2.88;;;3.40;99.90;;;;;;5048986;28;20033;-58
2022/01/05 07:22:47;;;;;;;22.30;3.70;;;3.40;99.90;;;;;;5050832;28;20017;-57
2022/01/05 07:25:12;;;;;;;19.00;3.72;;;3.40;99.90;;;;;;5050191;28;20481;-59
2022/01/05 07:27:38;;;;;;;22.80;3.45;;;3.50;99.90;;;;;;5050026;28;20106;-59
2022/01/05 07:30:05;;;;;;;19.15;3.33;;;3.50;99.90;;;;;;5049914;28;20075;-59
2022/01/05 07:32:31;;;;;;;23.40;3.95;;;3.40;99.90;;;;;;5049578;28;20116;-60
2022/01/05 07:34:57;;;;;;;21.60;3.80;;;3.40;99.90;;;;;;5047813;28;20505;-62
2022/01/05 07:37:23;;;;;;;24.27;3.13;;;3.30;99.90;;;;;;5050435;28;20032;-62
2022/01/05 07:39:49;;;;;;;17.88;3.25;;;3.30;99.90;;;;;;5049562;28;20482;-61
2022/01/05 07:42:14;;;;;;;23.17;3.03;;;3.30;99.90;;;;;;5052142;28;20090;-61
2022/01/05 07:44:40;;;;;;;22.63;3.67;;;3.30;99.90;;;;;;5052833;28;20029;-60
2022/01/05 07:47:07;;;;;;;22.10;3.75;;;3.30;99.90;;;;;;5054716;28;20363;-61
2022/01/05 07:49:33;;;;;;;15.68;3.40;;;3.30;99.90;;;;;;5052386;28;20036;-55
2022/01/05 07:51:59;;;;;;;25.75;3.33;;;3.30;99.90;;;;;;5054188;28;20025;-54
2022/01/05 07:54:25;;;;;;;23.45;4.35;;;3.40;99.90;;;;;;5053840;28;20059;-59
2022/01/05 07:56:51;;;;;;;22.73;3.42;;;3.40;99.90;;;;;;5053535;28;20106;-58
2022/01/05 07:59:16;;;;;;;18.60;3.10;;;3.50;99.90;;;;;;5050953;28;20044;-51
2022/01/05 08:01:42;;;;;;;23.30;4.15;;;3.60;99.90;;;;;;5053068;28;20036;-48
2022/01/05 08:04:08;;;;;;;24.58;4.80;;;3.70;99.90;;;;;;5052317;28;20041;-51
2022/01/05 08:06:33;;;;;;;17.85;3.80;;;3.70;99.90;;;;;;5053001;28;20029;-52
2022/01/05 08:09:00;;;;;;;26.05;3.80;;;3.70;99.90;;;;;;5051629;28;20063;-57
2022/01/05 08:11:25;;;;;;;22.00;4.00;;;3.70;99.90;;;;;;5051773;28;20048;-55
2022/01/05 08:13:52;;;;;;;34.95;4.35;;;3.70;99.90;;;;;;5053792;28;20045;-56
2022/01/05 08:16:18;;;;;;;16.35;3.80;;;3.70;99.90;;;;;;5052936;28;20173;-60
2022/01/05 08:18:44;;;;;;;21.48;4.35;;;3.70;99.90;;;;;;5052316;28;20478;-63
2022/01/05 08:21:10;;;;;;;25.88;4.30;;;3.60;99.90;;;;;;5052443;28;20095;-63
2022/01/05 08:23:36;;;;;;;15.40;4.00;;;3.50;99.90;;;;;;5053144;28;20494;-64
2022/01/05 08:26:04;;;;;;;26.20;4.68;;;3.40;99.90;;;;;;5032401;28;20041;-63
2022/01/05 08:28:29;;;;;;;22.75;3.53;;;3.30;99.90;;;;;;5053627;28;20049;-62
2022/01/05 08:30:55;;;;;;;21.20;3.85;;;3.30;99.90;;;;;;5052905;28;20094;-61
2022/01/05 08:33:20;;;;;;;22.83;3.47;;;3.30;99.90;;;;;;5053365;28;20033;-60
2022/01/05 08:35:47;;;;;;;23.60;4.47;;;3.30;99.90;;;;;;5052525;28;20539;-61
2022/01/05 08:38:13;;;;;;;20.08;3.97;;;3.20;99.90;;;;;;5052857;28;20033;-59
2022/01/05 08:40:40;;;;;;;21.92;4.00;;;3.20;99.90;;;;;;5053183;28;20489;-57
2022/01/05 08:43:06;;;;;;;13.68;4.30;;;3.10;99.90;;;;;;5052539;28;20029;-61
2022/01/05 08:45:33;;;;;;;18.83;4.30;;;3.10;99.90;;;;;;5053754;28;20024;-60
2022/01/05 08:47:59;;;;;;;15.23;4.75;;;3.10;99.90;;;;;;5052183;28;20108;-61
2022/01/05 08:50:27;;;;;;;21.63;4.82;;;3.10;99.90;;;;;;5052354;28;20029;-59
2022/01/05 08:52:54;;;;;;;26.38;4.15;;;3.10;99.90;;;;;;5052316;28;20037;-58
2022/01/05 08:55:22;;;;;;;21.33;4.15;;;3.10;99.90;;;;;;5052639;28;20109;-61
2022/01/05 08:57:48;;;;;;;20.92;5.00;;;3.10;99.90;;;;;;5051188;28;20040;-61
2022/01/05 09:00:15;;;;;;;16.65;4.60;;;3.10;99.90;;;;;;5050621;28;20025;-62
2022/01/05 09:02:41;;;;;;;20.73;5.13;;;3.10;99.90;;;;;;5051966;28;20474;-62
2022/01/05 09:05:07;;;;;;;24.27;5.32;;;3.00;99.90;;;;;;5052937;28;20033;-62
2022/01/05 09:07:33;;;;;;;23.88;4.75;;;3.00;99.90;;;;;;5051918;28;20025;-60
2022/01/05 09:09:59;;;;;;;15.18;4.93;;;3.00;99.90;;;;;;5050827;28;20029;-61
2022/01/05 09:12:24;;;;;;;28.48;5.43;;;3.00;99.90;;;;;;5051798;28;20039;-60
2022/01/05 09:14:50;;;;;;;22.75;5.13;;;3.00;99.90;;;;;;5052953;28;20029;-57
2022/01/05 09:17:16;;;;;;;25.55;6.03;;;3.00;99.90;;;;;;5051333;28;20445;-47
2022/01/05 09:19:42;;;;;;;25.42;5.18;;;3.10;99.90;;;;;;5051084;28;20383;-46
2022/01/05 09:22:08;;;;;;;19.40;4.88;;;3.20;99.90;;;;;;5052203;28;20028;-60
2022/01/05 09:24:36;;;;;;;19.27;5.07;;;3.30;99.90;;;;;;5051228;28;20033;-65
2022/01/05 09:27:04;;;;;;;13.90;4.50;;;3.30;99.90;;;;;;5047384;28;20048;-62
2022/01/05 09:29:30;;;;;;;19.15;4.78;;;3.30;99.90;;;;;;5052743;28;20028;-61
2022/01/05 09:31:56;;;;;;;17.73;4.95;;;3.30;99.90;;;;;;5034282;28;20044;-62
2022/01/05 09:34:22;;;;;;;17.48;5.78;;;3.30;99.90;;;;;;5052328;28;20025;-63
2022/01/05 09:36:51;;;;;;;25.45;6.03;;;3.40;99.90;;;;;;5051378;28;20056;-61
2022/01/05 09:42:05;;;;;;;17.77;6.00;;;3.50;99.90;;;;;;5050872;28;20040;-64
2022/01/05 09:44:38;;;;;;;20.85;7.30;;;3.50;99.90;;;;;;5050755;28;20040;-63
2022/01/05 09:47:22;;;;;;;17.88;7.20;;;3.50;99.90;;;;;;5054627;28;20028;-64
2022/01/05 09:50:14;;;;;;;21.35;7.05;;;3.60;99.90;;;;;;5035933;28;20101;-64
2022/01/05 09:52:42;;;;;;;19.77;6.10;;;3.60;99.90;;;;;;5044949;28;20041;-64
2022/01/05 09:55:11;;;;;;;24.20;7.15;;;3.70;99.90;;;;;;5051688;28;20052;-65
2022/01/05 09:57:39;;;;;;;22.65;7.22;;;3.60;99.90;;;;;;5050727;28;20072;-63
2022/01/05 10:00:07;;;;;;;19.35;6.90;;;3.70;99.90;;;;;;5048203;28;20036;-64
2022/01/05 10:02:32;;;;;;;20.73;6.43;;;3.70;99.90;;;;;;5045944;28;20090;-65
2022/01/05 10:04:58;;;;;;;20.15;7.18;;;3.70;99.90;;;;;;5057594;28;20056;-66
2022/01/05 10:07:24;;;;;;;24.73;6.85;;;3.80;99.90;;;;;;5051937;28;20187;-65
2022/01/05 10:09:51;;;;;;;23.73;7.32;;;3.80;99.90;;;;;;5050596;28;20065;-65
2022/01/05 10:12:16;;;;;;;19.95;7.68;;;3.80;99.90;;;;;;5048271;28;20043;-67
2022/01/05 10:14:45;;;;;;;21.63;7.47;;;3.90;99.90;;;;;;5050211;28;20029;-66
2022/01/05 10:17:24;;;;;;;27.08;8.43;;;3.90;99.90;;;;;;5050167;28;20104;-64
2022/01/05 10:19:58;;;;;;;19.60;8.35;;;3.90;99.90;;;;;;5031758;28;20033;-65
2022/01/05 10:22:36;;;;;;;20.10;8.50;;;3.80;99.90;;;;;;5039962;28;20121;-65
2022/01/05 10:25:06;;;;;;;20.40;9.05;;;3.80;99.90;;;;;;5049586;28;20063;-65
2022/01/05 10:27:32;;;;;;;25.77;10.77;;;3.90;99.90;;;;;;5050318;28;20532;-65
2022/01/05 10:30:05;;;;;;;24.58;8.85;;;3.80;99.90;;;;;;5053338;28;20029;-65
2022/01/05 10:32:33;;;;;;;22.83;9.93;;;3.90;99.90;;;;;;5050772;28;20036;-65
2022/01/05 10:35:16;;;;;;;27.67;7.68;;;3.90;99.90;;;;;;5051644;28;20021;-66
2022/01/05 10:37:55;;;;;;;20.70;7.40;;;4.00;99.90;;;;;;5050380;28;20017;-64
2022/01/05 10:40:22;;;;;;;18.33;7.50;;;4.00;99.90;;;;;;5051113;28;20415;-66
2022/01/05 10:42:50;;;;;;;30.15;8.20;;;4.00;99.90;;;;;;5050893;28;20039;-64
2022/01/05 10:45:19;;;;;;;23.75;7.40;;;4.10;99.90;;;;;;5052035;28;20060;-63
2022/01/05 10:48:07;;;;;;;20.02;7.10;;;4.10;99.90;;;;;;5032357;28;20479;-64
2022/01/05 10:50:35;;;;;;;19.05;7.15;;;4.10;99.90;;;;;;5043923;28;20077;-64
2022/01/05 10:53:01;;;;;;;13.98;6.07;;;4.10;99.90;;;;;;5049233;28;20063;-65
2022/01/05 10:55:29;;;;;;;21.48;6.93;;;4.20;99.90;;;;;;5043221;28;20029;-65
2022/01/05 10:58:02;;;;;;;19.73;5.88;;;4.20;99.90;;;;;;5050729;28;20025;-65
2022/01/05 11:00:36;;;;;;;22.98;7.43;;;4.20;99.90;;;;;;5047988;28;20494;-63
2022/01/05 11:03:02;;;;;;;17.98;6.65;;;4.20;99.90;;;;;;5048697;28;20025;-65
2022/01/05 11:05:28;;;;;;;23.65;7.28;;;4.20;99.90;;;;;;5049374;28;20048;-64
2022/01/05 11:08:07;;;;;;;17.92;5.43;;;4.20;99.90;;;;;;5048429;28;20033;-64
2022/01/05 11:10:33;;;;;;;20.50;5.60;;;4.20;99.90;;;;;;5041210;28;20040;-62
2022/01/05 11:12:58;;;;;;;15.10;5.03;;;4.10;99.90;;;;;;5049369;28;20422;-62
2022/01/05 11:15:32;;;;;;;15.23;5.38;;;4.00;99.90;;;;;;5049899;28;20037;-67
2022/01/05 11:18:11;;;;;;;17.88;6.80;;;3.90;99.90;;;;;;5048814;28;20033;-63
2022/01/05 11:21:02;;;;;;;11.93;5.10;;;3.90;99.90;;;;;;5036985;28;20040;-66
2022/01/05 11:23:30;;;;;;;14.87;5.97;;;3.80;99.90;;;;;;5049356;28;20078;-64
2022/01/05 11:25:59;;;;;;;13.90;5.28;;;3.80;99.90;;;;;;5045864;28;20215;-64
2022/01/05 11:28:26;;;;;;;17.13;5.45;;;3.70;99.90;;;;;;5046022;28;20017;-64
2022/01/05 11:30:54;;;;;;;14.13;5.68;;;3.70;99.90;;;;;;5042523;28;20381;-63
2022/01/05 11:33:21;;;;;;;18.13;5.53;;;3.70;99.90;;;;;;5048296;28;20478;-61
2022/01/05 11:35:47;;;;;;;12.85;5.07;;;3.70;99.90;;;;;;5047092;28;20040;-61
2022/01/05 11:38:13;;;;;;;8.82;4.20;;;3.70;99.90;;;;;;5043837;28;20463;-62
2022/01/05 11:40:49;;;;;;;7.25;3.20;;;3.70;99.90;;;;;;5047953;28;20433;-64
2022/01/05 11:43:32;;;;;;;8.45;4.30;;;3.70;99.90;;;;;;5047765;28;20151;-63
2022/01/05 11:46:11;;;;;;;7.82;3.90;;;3.60;99.90;;;;;;5047096;28;20040;-65
2022/01/05 11:48:40;;;;;;;7.82;3.83;;;3.70;99.90;;;;;;5047876;28;20029;-63
2022/01/05 11:51:06;;;;;;;6.72;3.60;;;3.60;99.90;;;;;;5045531;28;20475;-61
2022/01/05 11:53:34;;;;;;;7.45;4.18;;;3.70;99.90;;;;;;5048653;28;20033;-65
2022/01/05 11:55:59;;;;;;;9.68;3.50;;;3.70;99.90;;;;;;5048071;28;20450;-64
2022/01/05 11:58:30;;;;;;;7.70;3.53;;;3.70;99.90;;;;;;5048570;28;20053;-64
2022/01/05 12:01:16;;;;;;;6.22;3.20;;;3.80;99.90;;;;;;5047079;28;20510;-63
2022/01/05 12:03:56;;;;;;;7.13;3.45;;;3.80;99.90;;;;;;5045284;28;20544;-55
2022/01/05 12:06:27;;;;;;;8.40;4.00;;;3.80;99.90;;;;;;5047705;28;20021;-53
2022/01/05 12:08:55;;;;;;;10.38;3.50;;;3.80;99.90;;;;;;5048702;28;20033;-59
2022/01/05 12:11:39;;;;;;;8.60;2.83;;;3.80;99.90;;;;;;5046873;28;20375;-52
2022/01/05 12:14:07;;;;;;;11.35;3.25;;;3.80;99.90;;;;;;5048588;28;20041;-57
2022/01/05 12:17:06;;;;;;;8.60;3.28;;;3.80;99.90;;;;;;5047006;28;20383;-63
2022/01/05 12:19:35;;;;;;;4.97;1.92;;;3.60;99.90;;;;;;5044068;28;20021;-63
2022/01/05 12:22:14;;;;;;;7.88;2.25;;;3.70;99.90;;;;;;5047138;28;20422;-61
2022/01/05 12:25:05;;;;;;;3.88;1.92;;;3.60;99.90;;;;;;5044025;28;20029;-59
2022/01/05 12:27:32;;;;;;;2.20;0.90;;;3.60;99.90;;;;;;5045043;28;20040;-55
2022/01/05 12:29:59;;;;;;;2.95;1.08;;;3.50;99.90;;;;;;5049869;28;20032;-61
2022/01/05 12:32:38;;;;;;;3.95;0.98;;;3.50;99.90;;;;;;5050798;28;20029;-57
2022/01/05 12:35:18;;;;;;;3.05;1.08;;;3.50;99.90;;;;;;5051951;28;20467;-56
2022/01/05 12:38:04;;;;;;;3.13;1.42;;;3.50;99.90;;;;;;5050921;28;20041;-59
2022/01/05 12:40:33;;;;;;;4.10;1.35;;;3.50;99.90;;;;;;5049000;28;20032;-62
2022/01/05 12:43:13;;;;;;;3.97;1.13;;;3.50;99.90;;;;;;5051630;28;20032;-57
2022/01/05 12:45:47;;;;;;;3.50;1.17;;;3.50;99.90;;;;;;5050795;28;20103;-57
2022/01/05 12:48:39;;;;;;;3.53;1.38;;;3.50;99.90;;;;;;5051515;28;20025;-57
2022/01/05 12:51:13;;;;;;;3.78;1.30;;;3.60;99.90;;;;;;5048320;28;20061;-57
2022/01/05 12:54:13;;;;;;;6.22;1.60;;;3.60;99.90;;;;;;5050539;28;20021;-58
2022/01/05 12:56:44;;;;;;;3.58;1.63;;;3.60;99.90;;;;;;5044636;28;20041;-58